Time;durP1;ratioP1;P1;durP2;ratioP2;P2;SDS_P1;SDS_P2;PMS_P1;PMS_P2;Temp;Humidity;BMP_temperature;BMP_pressure;BME280_temperature;BME280_humidity;BME280_pressure;Samples;Min_cycle;Max_cycle;Signal;HPM_P1;HPM_P2
2022/12/02 00:00:25;;;;;;;78.80;34.60;;;3.30;1.00;;;;;;5016519;28;20200;-64
2022/12/02 00:02:55;;;;;;;77.77;34.47;;;3.40;1.00;;;;;;5031630;28;20287;-64
2022/12/02 00:05:31;;;;;;;74.87;34.50;;;3.30;1.00;;;;;;5030189;28;20224;-63
2022/12/02 00:08:01;;;;;;;80.33;34.80;;;3.30;1.00;;;;;;5032408;28;20184;-64
2022/12/02 00:10:32;;;;;;;90.40;34.77;;;3.30;1.00;;;;;;5022635;28;20269;-64
2022/12/02 00:13:23;;;;;;;75.47;34.70;;;3.30;1.00;;;;;;5017479;28;20583;-64
2022/12/02 00:15:58;;;;;;;79.33;33.63;;;3.30;1.00;;;;;;5031205;28;20212;-64
2022/12/02 00:18:26;;;;;;;81.00;33.80;;;3.30;1.00;;;;;;5017207;28;20205;-63
2022/12/02 00:20:53;;;;;;;78.00;33.97;;;3.40;1.00;;;;;;5013189;28;20188;-63
2022/12/02 00:23:21;;;;;;;82.67;33.93;;;3.40;1.00;;;;;;5016502;28;20215;-64
2022/12/02 00:25:50;;;;;;;69.37;35.50;;;3.30;1.00;;;;;;5021102;28;20198;-64
2022/12/02 00:28:18;;;;;;;77.07;35.90;;;3.40;1.00;;;;;;5017972;28;20207;-66
2022/12/02 00:30:45;;;;;;;88.57;36.33;;;3.40;1.00;;;;;;5024490;28;20608;-63
2022/12/02 00:33:14;;;;;;;77.43;36.20;;;3.40;1.00;;;;;;5022268;28;20339;-65
2022/12/02 00:35:42;;;;;;;85.07;35.97;;;3.40;1.00;;;;;;5016531;28;20254;-64
2022/12/02 00:38:09;;;;;;;73.30;32.23;;;3.40;1.00;;;;;;5013651;28;20318;-63
2022/12/02 00:40:36;;;;;;;77.03;34.90;;;3.40;1.00;;;;;;5013372;28;23384;-63
2022/12/02 00:48:34;;;;;;;87.80;34.43;;;3.40;1.00;;;;;;5014860;28;20192;-63
2022/12/02 00:51:02;;;;;;;90.73;36.77;;;3.40;1.00;;;;;;5019401;28;20475;-64
2022/12/02 00:53:31;;;;;;;80.80;36.10;;;3.40;1.00;;;;;;4993644;28;20220;-62
2022/12/02 00:55:58;;;;;;;84.53;35.90;;;3.40;1.00;;;;;;5021772;28;20272;-63
2022/12/02 00:58:25;;;;;;;90.07;35.73;;;3.40;1.00;;;;;;4991394;28;20664;-63
2022/12/02 01:00:51;;;;;;;93.03;33.87;;;3.40;1.00;;;;;;5025116;28;20209;-64
2022/12/02 01:03:18;;;;;;;90.57;36.17;;;3.40;1.00;;;;;;5021009;28;20259;-65
2022/12/02 01:05:45;;;;;;;92.20;36.03;;;3.40;1.00;;;;;;5024844;28;20193;-64
2022/12/02 01:08:12;;;;;;;81.57;34.47;;;3.40;1.00;;;;;;5014790;28;20196;-66
2022/12/02 01:10:39;;;;;;;94.67;38.20;;;3.40;1.00;;;;;;5010653;28;20216;-63
2022/12/02 01:13:06;;;;;;;85.03;33.77;;;3.40;1.00;;;;;;5024746;28;20548;-64
2022/12/02 01:15:33;;;;;;;99.43;36.77;;;3.30;1.00;;;;;;5025891;28;20183;-63
2022/12/02 01:18:00;;;;;;;97.87;38.83;;;3.30;1.00;;;;;;5024307;28;20223;-63
2022/12/02 01:20:27;;;;;;;96.83;37.83;;;3.30;1.00;;;;;;5025131;28;20878;-63
2022/12/02 01:22:54;;;;;;;94.47;37.50;;;3.30;1.00;;;;;;5029074;28;20206;-65
2022/12/02 01:25:21;;;;;;;93.13;36.83;;;3.30;1.00;;;;;;5030653;28;20206;-63
2022/12/02 01:27:48;;;;;;;94.47;37.87;;;3.30;1.00;;;;;;5029604;28;20623;-65
2022/12/02 01:30:15;;;;;;;101.60;40.10;;;3.30;1.00;;;;;;5031425;28;20365;-65
2022/12/02 01:32:42;;;;;;;104.07;40.20;;;3.30;1.00;;;;;;5029765;28;20318;-64
2022/12/02 01:35:09;;;;;;;99.73;39.77;;;3.30;1.00;;;;;;5029435;28;21100;-63
2022/12/02 01:37:36;;;;;;;93.63;37.23;;;3.30;1.00;;;;;;5032635;28;20689;-64
2022/12/02 01:40:05;;;;;;;100.10;38.63;;;3.30;1.00;;;;;;5015250;28;20207;-65
2022/12/02 01:42:33;;;;;;;100.17;36.30;;;3.30;1.00;;;;;;5000656;28;20794;-64
2022/12/02 01:45:02;;;;;;;96.17;37.17;;;3.40;1.00;;;;;;5030700;28;20193;-66
2022/12/02 01:47:30;;;;;;;92.13;36.20;;;3.30;1.00;;;;;;5019784;28;20191;-64
2022/12/02 01:49:57;;;;;;;110.47;38.63;;;3.30;1.00;;;;;;5016841;28;21418;-64
2022/12/02 01:52:24;;;;;;;101.80;39.23;;;3.30;1.00;;;;;;5026087;28;20203;-63
2022/12/02 01:54:51;;;;;;;101.20;39.60;;;3.40;1.00;;;;;;5031613;28;20266;-64
2022/12/02 01:57:24;;;;;;;111.87;40.17;;;3.40;1.00;;;;;;5031200;28;20215;-64
2022/12/02 01:59:51;;;;;;;99.43;38.27;;;3.40;1.00;;;;;;5023499;28;21088;-63
2022/12/02 02:02:34;;;;;;;109.90;38.17;;;3.40;1.00;;;;;;5031538;28;20250;-68
2022/12/02 02:05:10;;;;;;;96.53;36.73;;;3.40;1.00;;;;;;5018317;28;20280;-64
2022/12/02 02:07:39;;;;;;;105.37;36.43;;;3.40;1.00;;;;;;5020033;28;20221;-64
2022/12/02 02:10:07;;;;;;;93.00;36.30;;;3.40;1.00;;;;;;5031685;28;20227;-63
2022/12/02 02:12:35;;;;;;;102.57;38.03;;;3.30;1.00;;;;;;5034047;28;20204;-64
2022/12/02 02:15:04;;;;;;;104.73;37.03;;;3.30;1.00;;;;;;5027855;28;20192;-65
2022/12/02 02:17:31;;;;;;;98.13;38.13;;;3.30;1.00;;;;;;5015196;28;20200;-63
2022/12/02 02:20:01;;;;;;;97.77;38.70;;;3.30;1.00;;;;;;5030781;28;20572;-63
2022/12/02 02:22:40;;;;;;;105.70;37.50;;;3.40;1.00;;;;;;5017025;28;20204;-61
2022/12/02 02:25:13;;;;;;;104.73;38.03;;;3.40;1.00;;;;;;5034000;28;20462;-64
2022/12/02 02:27:53;;;;;;;95.97;37.33;;;3.30;1.00;;;;;;5008976;28;20602;-64
2022/12/02 02:30:21;;;;;;;111.23;38.97;;;3.30;1.00;;;;;;5031057;28;20301;-65
2022/12/02 02:32:50;;;;;;;106.80;38.97;;;3.40;1.00;;;;;;5031683;28;20199;-64
2022/12/02 02:35:18;;;;;;;103.20;37.87;;;3.40;1.00;;;;;;5051181;28;20192;-65
2022/12/02 02:37:47;;;;;;;101.60;36.97;;;3.30;1.00;;;;;;5033192;28;20205;-65
2022/12/02 02:40:16;;;;;;;112.60;39.87;;;3.30;1.00;;;;;;5008765;28;20768;-65
2022/12/02 02:42:48;;;;;;;106.47;39.77;;;3.30;1.00;;;;;;5017288;28;20204;-64
2022/12/02 02:45:16;;;;;;;100.27;38.60;;;3.30;1.00;;;;;;5014686;28;20580;-63
2022/12/02 02:47:44;;;;;;;95.60;37.60;;;3.30;1.00;;;;;;5033016;28;20202;-63
2022/12/02 02:50:12;;;;;;;107.47;39.67;;;3.30;1.00;;;;;;5030920;28;20701;-63
2022/12/02 02:52:39;;;;;;;102.90;40.23;;;3.30;1.00;;;;;;5014390;28;20695;-64
2022/12/02 02:55:09;;;;;;;100.87;39.10;;;3.30;1.00;;;;;;5032276;28;20195;-64
2022/12/02 02:57:36;;;;;;;99.87;38.40;;;3.30;1.00;;;;;;5041626;28;20303;-63
2022/12/02 03:00:04;;;;;;;90.13;36.77;;;3.30;1.00;;;;;;5014501;28;20232;-63
2022/12/02 03:02:31;;;;;;;97.70;36.57;;;3.30;1.00;;;;;;5014134;28;20208;-64
2022/12/02 03:04:59;;;;;;;93.53;36.27;;;3.30;1.00;;;;;;5032081;28;20188;-64
2022/12/02 03:07:28;;;;;;;92.13;35.33;;;3.30;1.00;;;;;;5030701;28;20208;-65
2022/12/02 03:09:56;;;;;;;86.80;34.23;;;3.30;1.00;;;;;;5020441;28;20231;-63
2022/12/02 03:12:23;;;;;;;89.77;34.13;;;3.30;1.00;;;;;;5026029;28;20205;-64
2022/12/02 03:14:50;;;;;;;87.80;34.20;;;3.20;1.00;;;;;;5030294;28;20188;-63
2022/12/02 03:17:18;;;;;;;85.07;33.27;;;3.30;1.00;;;;;;5028955;28;20241;-63
2022/12/02 03:19:46;;;;;;;86.33;32.60;;;3.30;1.00;;;;;;5025835;28;20189;-64
2022/12/02 03:22:13;;;;;;;83.47;34.17;;;3.30;1.00;;;;;;5027625;28;20283;-63
2022/12/02 03:24:40;;;;;;;93.77;33.57;;;3.20;1.00;;;;;;5031402;28;20188;-63
2022/12/02 03:27:09;;;;;;;93.80;34.30;;;3.30;1.00;;;;;;5030207;28;20184;-63
2022/12/02 03:29:36;;;;;;;94.40;34.37;;;3.30;1.00;;;;;;5032557;28;20562;-62
2022/12/02 03:32:03;;;;;;;91.80;34.57;;;3.30;1.00;;;;;;5030708;28;20198;-63
2022/12/02 03:34:31;;;;;;;100.67;37.10;;;3.30;1.00;;;;;;5034495;28;20308;-65
2022/12/02 03:36:58;;;;;;;90.43;35.23;;;3.30;1.00;;;;;;5035165;28;20310;-62
2022/12/02 03:39:26;;;;;;;91.70;34.13;;;3.30;1.00;;;;;;5032433;28;20283;-62
2022/12/02 03:41:53;;;;;;;97.43;35.53;;;3.30;1.00;;;;;;5030529;28;20223;-61
2022/12/02 03:44:20;;;;;;;96.30;34.93;;;3.30;1.00;;;;;;5033480;28;20572;-62
2022/12/02 03:46:47;;;;;;;88.70;35.67;;;3.30;1.00;;;;;;5030652;28;20196;-61
2022/12/02 03:49:16;;;;;;;90.40;34.47;;;3.30;1.00;;;;;;5033735;28;20188;-62
2022/12/02 03:51:43;;;;;;;83.60;32.80;;;3.30;1.00;;;;;;5028562;28;20208;-63
2022/12/02 03:54:11;;;;;;;92.30;33.90;;;3.30;1.00;;;;;;5028234;28;20306;-61
2022/12/02 03:56:41;;;;;;;79.10;33.27;;;3.30;1.00;;;;;;5029282;28;20648;-62
2022/12/02 03:59:09;;;;;;;86.47;33.67;;;3.30;1.00;;;;;;5024398;28;20219;-63
2022/12/02 04:01:36;;;;;;;86.87;32.37;;;3.30;1.00;;;;;;5029926;28;20196;-61
2022/12/02 04:04:03;;;;;;;79.73;31.87;;;3.30;1.00;;;;;;5024724;28;20286;-63
2022/12/02 04:06:30;;;;;;;89.63;34.27;;;3.30;1.00;;;;;;5020640;28;20563;-62
2022/12/02 04:08:57;;;;;;;84.37;32.23;;;3.30;1.00;;;;;;5024328;28;20189;-61
2022/12/02 04:11:24;;;;;;;82.23;31.97;;;3.30;1.00;;;;;;5015540;28;20298;-67
2022/12/02 04:13:51;;;;;;;86.67;32.90;;;3.30;1.00;;;;;;5029441;28;20196;-61
2022/12/02 04:16:18;;;;;;;84.77;33.67;;;3.30;1.00;;;;;;5030816;28;20201;-62
2022/12/02 04:18:45;;;;;;;80.00;33.07;;;3.30;1.00;;;;;;5031549;28;20212;-64
2022/12/02 04:21:12;;;;;;;76.00;33.80;;;3.30;1.00;;;;;;5017555;28;20203;-62
2022/12/02 04:23:39;;;;;;;78.57;30.63;;;3.20;1.00;;;;;;5032603;28;20200;-61
2022/12/02 04:26:06;;;;;;;79.80;33.63;;;3.20;1.00;;;;;;5033616;28;20246;-61
2022/12/02 04:28:33;;;;;;;80.37;32.63;;;3.30;1.00;;;;;;5033054;28;20313;-63
2022/12/02 04:30:59;;;;;;;82.00;32.77;;;3.20;1.00;;;;;;5033142;28;20269;-63
2022/12/02 04:33:26;;;;;;;94.93;35.00;;;3.30;1.00;;;;;;5033440;28;20195;-60
2022/12/02 04:35:53;;;;;;;88.97;33.47;;;3.20;1.00;;;;;;5028034;28;20297;-60
2022/12/02 04:38:20;;;;;;;81.77;32.43;;;3.20;1.00;;;;;;5015883;28;20346;-60
2022/12/02 04:40:47;;;;;;;78.90;33.23;;;3.20;1.00;;;;;;5028908;28;20206;-62
2022/12/02 04:43:14;;;;;;;90.17;33.10;;;3.20;1.00;;;;;;5031098;28;20720;-62
2022/12/02 04:45:41;;;;;;;86.67;32.23;;;3.20;1.00;;;;;;5031005;28;20728;-61
2022/12/02 04:48:08;;;;;;;82.60;31.17;;;3.20;1.00;;;;;;5032468;28;20196;-60
2022/12/02 04:50:35;;;;;;;70.63;30.90;;;3.10;1.00;;;;;;5027917;28;20672;-60
2022/12/02 04:53:02;;;;;;;81.33;31.40;;;3.10;1.00;;;;;;5032019;28;20660;-61
2022/12/02 04:55:29;;;;;;;78.70;30.43;;;3.10;1.00;;;;;;5016136;28;20562;-62
2022/12/02 04:57:56;;;;;;;81.53;30.83;;;3.10;1.00;;;;;;5030073;28;20756;-61
2022/12/02 05:00:23;;;;;;;80.87;32.10;;;3.10;1.00;;;;;;5014399;28;20200;-61
2022/12/02 05:02:50;;;;;;;81.30;30.70;;;3.20;1.00;;;;;;5028956;28;20626;-62
2022/12/02 05:05:17;;;;;;;77.60;30.10;;;3.20;1.00;;;;;;5015058;28;20368;-61
2022/12/02 05:07:44;;;;;;;71.80;29.10;;;3.10;1.00;;;;;;5008396;28;20200;-63
2022/12/02 05:10:11;;;;;;;72.73;30.77;;;3.20;1.00;;;;;;5033577;28;20733;-62
2022/12/02 05:12:38;;;;;;;78.03;29.27;;;3.20;1.00;;;;;;5035248;28;20215;-63
2022/12/02 05:15:05;;;;;;;75.23;29.50;;;3.20;1.00;;;;;;5037348;28;20754;-61
2022/12/02 05:17:32;;;;;;;80.00;29.67;;;3.20;1.00;;;;;;5050407;28;20228;-63
2022/12/02 05:20:05;;;;;;;73.07;29.07;;;3.20;1.00;;;;;;5035632;28;20811;-63
2022/12/02 05:22:32;;;;;;;75.93;29.57;;;3.10;1.00;;;;;;5032267;28;20187;-61
2022/12/02 05:24:59;;;;;;;68.97;28.27;;;3.20;1.00;;;;;;5031993;28;20343;-63
2022/12/02 05:27:26;;;;;;;64.53;26.70;;;3.20;1.00;;;;;;5031890;28;20199;-62
2022/12/02 05:30:00;;;;;;;69.43;26.70;;;3.10;1.00;;;;;;5030689;28;20759;-61
2022/12/02 05:32:28;;;;;;;72.83;28.23;;;3.10;1.00;;;;;;5027136;28;20584;-62
2022/12/02 05:34:55;;;;;;;69.27;26.13;;;3.10;1.00;;;;;;5031511;28;20195;-60
2022/12/02 05:37:22;;;;;;;69.50;26.43;;;3.10;1.00;;;;;;5029943;28;20232;-63
2022/12/02 05:39:50;;;;;;;65.77;27.27;;;3.00;1.00;;;;;;5028692;28;20196;-61
2022/12/02 05:42:18;;;;;;;61.37;26.43;;;3.10;1.00;;;;;;5015235;28;20202;-61
2022/12/02 05:44:44;;;;;;;63.30;25.50;;;3.10;1.00;;;;;;5033937;28;20541;-65
2022/12/02 05:47:14;;;;;;;57.30;25.27;;;3.10;1.00;;;;;;5032919;28;20278;-61
2022/12/02 05:49:43;;;;;;;57.50;24.83;;;3.10;1.00;;;;;;5033561;28;20746;-61
2022/12/02 05:52:24;;;;;;;56.87;26.50;;;3.10;1.00;;;;;;5032584;28;20188;-60
2022/12/02 05:55:06;;;;;;;57.53;24.23;;;3.10;1.00;;;;;;5031248;28;20241;-61
2022/12/02 05:57:33;;;;;;;52.43;24.10;;;3.10;1.00;;;;;;5035083;28;20243;-62
2022/12/02 06:00:15;;;;;;;54.47;23.63;;;3.20;1.00;;;;;;5034910;28;20573;-60
2022/12/02 06:03:05;;;;;;;57.57;24.43;;;3.10;1.00;;;;;;5034109;28;20208;-61
2022/12/02 06:05:39;;;;;;;57.87;24.43;;;3.10;1.00;;;;;;5027886;28;20925;-61
2022/12/02 06:08:32;;;;;;;55.17;25.27;;;3.10;1.00;;;;;;5052062;28;20206;-60
2022/12/02 06:11:29;;;;;;;68.27;29.60;;;3.10;1.00;;;;;;5032841;28;20785;-60
2022/12/02 06:13:59;;;;;;;51.43;25.03;;;3.00;1.00;;;;;;5036032;28;20194;-61
2022/12/02 06:16:29;;;;;;;56.57;25.03;;;3.00;1.00;;;;;;5034950;28;20283;-61
2022/12/02 06:18:59;;;;;;;54.27;25.80;;;3.00;1.00;;;;;;5034427;28;20244;-61
2022/12/02 06:21:26;;;;;;;50.90;23.67;;;3.00;1.00;;;;;;5031263;28;20188;-60
2022/12/02 06:23:57;;;;;;;49.77;23.37;;;3.00;1.00;;;;;;5031637;28;20378;-61
2022/12/02 06:26:24;;;;;;;47.20;21.33;;;3.00;1.00;;;;;;5033934;28;20579;-61
2022/12/02 06:29:02;;;;;;;45.40;21.93;;;3.00;1.00;;;;;;5035335;28;20236;-60
2022/12/02 06:31:38;;;;;;;48.30;21.00;;;3.00;1.00;;;;;;5005033;28;20616;-60
2022/12/02 06:34:40;;;;;;;44.07;23.13;;;3.00;1.00;;;;;;5025823;28;20299;-61
2022/12/02 06:37:17;;;;;;;44.23;21.40;;;3.00;1.00;;;;;;5009741;28;20424;-60
2022/12/02 06:39:47;;;;;;;41.63;21.57;;;3.00;1.00;;;;;;5023216;28;20196;-60
2022/12/02 06:42:38;;;;;;;43.70;21.03;;;3.00;1.00;;;;;;5014296;28;20195;-62
2022/12/02 06:45:20;;;;;;;41.90;21.00;;;3.00;1.00;;;;;;5030226;28;20188;-64
2022/12/02 06:47:55;;;;;;;39.03;20.13;;;3.00;1.00;;;;;;5022122;28;20556;-62
2022/12/02 06:50:37;;;;;;;46.30;22.10;;;3.00;1.00;;;;;;5025986;28;20900;-61
2022/12/02 06:53:29;;;;;;;47.77;22.03;;;3.00;1.00;;;;;;5031875;28;20192;-60
2022/12/02 06:56:28;;;;;;;45.97;20.47;;;3.00;1.00;;;;;;5032104;28;20238;-62
2022/12/02 06:59:04;;;;;;;44.60;21.67;;;3.00;1.00;;;;;;5016022;28;20212;-60
2022/12/02 07:01:37;;;;;;;49.30;22.00;;;2.90;1.00;;;;;;5025172;28;20703;-61
2022/12/02 07:04:07;;;;;;;46.40;21.93;;;2.90;1.00;;;;;;5016153;28;20218;-61
2022/12/02 07:06:43;;;;;;;47.13;23.30;;;2.90;1.00;;;;;;5031558;28;20231;-61
2022/12/02 07:09:37;;;;;;;54.17;24.23;;;2.90;1.00;;;;;;5030393;28;20227;-60
2022/12/02 07:12:18;;;;;;;49.83;22.17;;;2.90;1.00;;;;;;5028929;28;20204;-61
2022/12/02 07:14:55;;;;;;;47.57;22.33;;;2.90;1.00;;;;;;5032436;28;20195;-61
2022/12/02 07:17:35;;;;;;;41.17;20.17;;;2.90;1.00;;;;;;5032816;28;20913;-61
2022/12/02 07:20:05;;;;;;;37.97;19.73;;;2.90;1.00;;;;;;5030257;28;20219;-61
2022/12/02 07:22:57;;;;;;;36.40;18.13;;;2.90;1.00;;;;;;5017607;28;20235;-62
2022/12/02 07:25:38;;;;;;;36.90;19.37;;;2.90;1.00;;;;;;5033937;28;20246;-60
2022/12/02 07:28:35;;;;;;;43.17;19.93;;;2.90;1.00;;;;;;5029404;28;20552;-61
2022/12/02 07:31:19;;;;;;;46.30;21.27;;;2.90;1.00;;;;;;5031212;28;20191;-61
2022/12/02 07:33:46;;;;;;;46.97;22.27;;;2.90;1.00;;;;;;5044808;28;20206;-60
2022/12/02 07:36:13;;;;;;;45.00;21.30;;;2.90;1.00;;;;;;5031090;28;20223;-62
2022/12/02 07:38:41;;;;;;;46.43;22.37;;;2.90;1.00;;;;;;5018055;28;20286;-61
2022/12/02 07:41:30;;;;;;;43.20;21.67;;;2.90;1.00;;;;;;5029429;28;20211;-61
2022/12/02 07:44:03;;;;;;;42.60;20.83;;;2.90;1.00;;;;;;5030827;28;20288;-61
2022/12/02 07:46:30;;;;;;;43.03;21.00;;;2.90;1.00;;;;;;5029541;28;20551;-62
2022/12/02 07:48:57;;;;;;;41.47;21.07;;;2.90;1.00;;;;;;5032469;28;20295;-61
2022/12/02 07:51:24;;;;;;;41.57;20.57;;;2.90;1.00;;;;;;5030978;28;20685;-61
2022/12/02 07:53:51;;;;;;;37.03;19.33;;;2.90;1.00;;;;;;5034271;28;20200;-60
2022/12/02 07:56:18;;;;;;;40.17;19.20;;;2.80;1.00;;;;;;5028596;28;20292;-61
2022/12/02 07:58:45;;;;;;;41.30;18.83;;;2.80;1.00;;;;;;5030167;28;20302;-62
2022/12/02 08:01:32;;;;;;;39.17;18.60;;;2.80;1.00;;;;;;5031482;28;20208;-62
2022/12/02 08:03:59;;;;;;;35.60;18.87;;;2.80;1.00;;;;;;5031381;28;20195;-62
2022/12/02 08:06:26;;;;;;;32.23;16.97;;;2.80;1.00;;;;;;5026406;28;20288;-60
2022/12/02 08:08:53;;;;;;;30.53;17.40;;;2.80;1.00;;;;;;5032873;28;20555;-61
2022/12/02 08:11:20;;;;;;;29.83;17.10;;;2.80;1.00;;;;;;5030438;28;20200;-62
2022/12/02 08:13:47;;;;;;;32.83;17.17;;;2.90;1.00;;;;;;5032162;28;20739;-61
2022/12/02 08:16:14;;;;;;;36.37;17.87;;;2.90;1.00;;;;;;5031449;28;20200;-61
2022/12/02 08:18:41;;;;;;;32.33;16.80;;;2.90;1.00;;;;;;5032424;28;20215;-61
2022/12/02 08:21:08;;;;;;;31.87;16.30;;;2.90;1.00;;;;;;5029366;28;20288;-63
2022/12/02 08:23:35;;;;;;;28.50;15.70;;;2.90;1.00;;;;;;5030327;28;20199;-62
2022/12/02 08:26:03;;;;;;;28.53;15.93;;;2.90;1.00;;;;;;5032681;28;20196;-61
2022/12/02 08:28:30;;;;;;;33.43;16.90;;;2.80;1.00;;;;;;5029493;28;20712;-61
2022/12/02 08:30:57;;;;;;;25.53;16.10;;;2.90;1.00;;;;;;5033526;28;21257;-61
2022/12/02 08:33:24;;;;;;;31.17;16.97;;;2.80;1.00;;;;;;5030315;28;20295;-61
2022/12/02 08:35:51;;;;;;;36.27;17.07;;;2.90;1.00;;;;;;5030142;28;20719;-60
2022/12/02 08:38:18;;;;;;;30.47;17.20;;;2.90;1.00;;;;;;5029535;28;20737;-62
2022/12/02 08:40:45;;;;;;;29.50;15.97;;;2.90;1.00;;;;;;5028195;28;20279;-62
2022/12/02 08:43:12;;;;;;;28.33;15.27;;;2.90;1.00;;;;;;5016822;28;20200;-62
2022/12/02 08:45:39;;;;;;;31.50;18.00;;;2.90;1.00;;;;;;5013410;28;20214;-62
2022/12/02 08:48:06;;;;;;;31.73;16.30;;;2.90;1.00;;;;;;5034262;28;20258;-62
2022/12/02 08:50:33;;;;;;;30.17;17.70;;;3.00;1.00;;;;;;5034928;28;20235;-62
2022/12/02 08:53:00;;;;;;;31.57;17.60;;;3.00;1.00;;;;;;5033747;28;20549;-61
2022/12/02 08:55:27;;;;;;;35.23;18.77;;;2.90;1.00;;;;;;5031522;28;20652;-60
2022/12/02 08:57:54;;;;;;;33.63;18.33;;;3.00;1.00;;;;;;5033653;28;20206;-61
2022/12/02 09:00:21;;;;;;;34.80;17.80;;;3.00;1.00;;;;;;5031050;28;20196;-63
2022/12/02 09:02:48;;;;;;;37.57;18.63;;;3.00;1.00;;;;;;5026416;28;20293;-62
2022/12/02 09:05:16;;;;;;;37.50;18.97;;;3.00;1.00;;;;;;5031289;28;20193;-60
2022/12/02 09:07:43;;;;;;;33.87;18.23;;;3.00;1.00;;;;;;5031963;28;20679;-64
2022/12/02 09:10:11;;;;;;;41.43;20.30;;;3.00;1.00;;;;;;5027894;28;20211;-62
2022/12/02 09:12:38;;;;;;;32.80;18.20;;;3.00;1.00;;;;;;5028769;28;20243;-62
2022/12/02 09:15:06;;;;;;;35.90;19.73;;;3.00;1.00;;;;;;5029771;28;20188;-60
2022/12/02 09:17:33;;;;;;;36.97;19.73;;;3.10;1.00;;;;;;5015121;28;20303;-61
2022/12/02 09:20:02;;;;;;;38.23;19.90;;;3.10;1.00;;;;;;5032243;28;20236;-61
2022/12/02 09:22:29;;;;;;;39.13;20.43;;;3.20;1.00;;;;;;5012277;28;20227;-62
2022/12/02 09:24:56;;;;;;;37.63;20.10;;;3.20;1.00;;;;;;5031715;28;20191;-60
2022/12/02 09:27:23;;;;;;;38.00;19.37;;;3.10;1.00;;;;;;5029756;28;20188;-60
2022/12/02 09:29:50;;;;;;;39.27;21.50;;;3.10;1.00;;;;;;5029060;28;20232;-60
2022/12/02 09:32:17;;;;;;;39.70;21.43;;;3.10;1.00;;;;;;5045339;28;20203;-60
2022/12/02 09:34:44;;;;;;;40.33;21.20;;;3.10;1.00;;;;;;5032894;28;20834;-61
2022/12/02 09:37:11;;;;;;;41.20;21.07;;;3.00;1.00;;;;;;5029554;28;20195;-62
2022/12/02 09:39:38;;;;;;;41.73;21.90;;;3.10;1.00;;;;;;5029652;28;20204;-61
2022/12/02 09:42:10;;;;;;;40.17;21.23;;;3.20;1.00;;;;;;5024787;28;20219;-61
2022/12/02 09:44:38;;;;;;;41.93;21.53;;;3.20;1.00;;;;;;5027086;28;20278;-63
2022/12/02 09:47:05;;;;;;;44.40;23.57;;;3.20;1.00;;;;;;5014393;28;20192;-63
2022/12/02 09:49:33;;;;;;;44.83;23.77;;;3.20;1.00;;;;;;5028901;28;20210;-62
2022/12/02 09:52:03;;;;;;;42.77;23.33;;;3.20;1.00;;;;;;5029174;28;20188;-61
2022/12/02 09:54:31;;;;;;;47.87;24.50;;;3.20;1.00;;;;;;5047268;28;20601;-61
2022/12/02 09:56:58;;;;;;;48.10;24.90;;;3.20;1.00;;;;;;5035323;28;20188;-61
2022/12/02 09:59:26;;;;;;;47.20;24.60;;;3.20;1.00;;;;;;5034315;28;20304;-61
2022/12/02 10:01:57;;;;;;;50.97;25.83;;;3.20;1.00;;;;;;5031237;28;20231;-60
2022/12/02 10:04:24;;;;;;;50.10;26.80;;;3.30;1.00;;;;;;5032218;28;20960;-61
2022/12/02 10:06:52;;;;;;;49.07;25.73;;;3.20;1.00;;;;;;5031902;28;20314;-61
2022/12/02 10:09:28;;;;;;;53.17;27.17;;;3.20;1.00;;;;;;5035461;28;20675;-61
2022/12/02 10:11:56;;;;;;;50.70;25.20;;;3.20;1.00;;;;;;5034086;28;20234;-62
2022/12/02 10:14:23;;;;;;;47.07;25.37;;;3.20;1.00;;;;;;5035188;28;20279;-61
2022/12/02 10:16:52;;;;;;;48.43;26.33;;;3.20;1.00;;;;;;5035284;28;20269;-62
2022/12/02 10:19:20;;;;;;;53.80;25.80;;;3.30;1.00;;;;;;5032135;28;20725;-63
2022/12/02 10:21:47;;;;;;;55.07;26.33;;;3.30;1.00;;;;;;5031969;28;20267;-61
2022/12/02 10:24:37;;;;;;;47.10;25.47;;;3.30;1.00;;;;;;5036041;28;20571;-61
2022/12/02 10:27:04;;;;;;;51.43;26.33;;;3.20;1.00;;;;;;5031163;28;20283;-61
2022/12/02 10:29:32;;;;;;;51.67;26.70;;;3.20;1.00;;;;;;5032547;28;20963;-60
2022/12/02 10:32:04;;;;;;;48.10;26.07;;;3.20;1.00;;;;;;5024962;28;20758;-60
2022/12/02 10:34:33;;;;;;;50.53;26.70;;;3.20;1.00;;;;;;5034651;28;20206;-60
2022/12/02 10:37:23;;;;;;;51.33;25.93;;;3.20;1.00;;;;;;5032289;28;20199;-61
2022/12/02 10:40:23;;;;;;;49.70;27.40;;;3.20;1.00;;;;;;5033325;28;20978;-61
2022/12/02 10:43:10;;;;;;;53.00;27.53;;;3.30;1.00;;;;;;5031280;28;20215;-61
2022/12/02 10:45:37;;;;;;;47.70;26.20;;;3.50;1.00;;;;;;5033261;28;20202;-62
2022/12/02 10:48:17;;;;;;;47.70;27.53;;;3.50;1.00;;;;;;5034960;28;20215;-59
2022/12/02 10:50:44;;;;;;;50.20;27.63;;;3.60;1.00;;;;;;5033030;28;20192;-60
2022/12/02 10:53:14;;;;;;;50.10;26.87;;;3.60;1.00;;;;;;5024681;28;20194;-61
2022/12/02 10:55:41;;;;;;;50.23;26.77;;;3.60;1.00;;;;;;5030890;28;20676;-61
2022/12/02 10:58:15;;;;;;;46.37;26.90;;;3.50;1.00;;;;;;5033865;28;20200;-61
2022/12/02 11:00:42;;;;;;;49.23;26.57;;;3.70;1.00;;;;;;5032537;28;20728;-63
2022/12/02 11:03:11;;;;;;;51.43;27.87;;;3.70;1.00;;;;;;5046137;28;20197;-59
2022/12/02 11:05:39;;;;;;;53.90;28.70;;;3.70;1.00;;;;;;5033317;28;20283;-61
2022/12/02 11:08:20;;;;;;;50.50;26.97;;;3.80;1.00;;;;;;5030898;28;20195;-60
2022/12/02 11:10:50;;;;;;;48.43;25.50;;;3.60;1.00;;;;;;5014344;28;20219;-60
2022/12/02 11:13:17;;;;;;;53.90;28.97;;;3.50;1.00;;;;;;5034044;28;20302;-60
2022/12/02 11:15:50;;;;;;;56.47;29.00;;;3.40;1.00;;;;;;5032483;28;20419;-61
2022/12/02 11:18:29;;;;;;;50.67;27.47;;;3.40;1.00;;;;;;5017292;28;20266;-63
2022/12/02 11:21:05;;;;;;;53.40;30.00;;;3.40;1.00;;;;;;5031759;28;20191;-61
2022/12/02 11:23:33;;;;;;;57.93;32.30;;;3.50;1.00;;;;;;5011109;28;20759;-60
2022/12/02 11:26:12;;;;;;;50.73;29.23;;;3.50;1.00;;;;;;5027710;28;20590;-59
2022/12/02 11:28:47;;;;;;;59.00;30.93;;;3.50;1.00;;;;;;5032630;28;20778;-69
2022/12/02 11:31:17;;;;;;;49.87;26.67;;;3.60;1.00;;;;;;5016304;28;20204;-61
2022/12/02 11:33:47;;;;;;;54.47;28.90;;;3.50;1.00;;;;;;5016721;28;20513;-61
2022/12/02 11:36:25;;;;;;;52.20;28.20;;;3.50;1.00;;;;;;5032600;28;20187;-61
2022/12/02 11:38:52;;;;;;;50.60;27.47;;;3.40;1.00;;;;;;5031110;28;20879;-60
2022/12/02 11:41:25;;;;;;;56.80;31.10;;;3.50;1.00;;;;;;5031142;28;20829;-60
2022/12/02 11:44:19;;;;;;;47.37;26.57;;;3.60;1.00;;;;;;5013975;28;20585;-62
2022/12/02 11:46:48;;;;;;;49.43;27.47;;;3.60;1.00;;;;;;5031040;28;20566;-61
2022/12/02 11:49:27;;;;;;;47.70;27.30;;;3.60;1.00;;;;;;5015752;28;20533;-61
2022/12/02 11:52:10;;;;;;;50.90;28.93;;;3.60;1.00;;;;;;5007380;28;20686;-60
2022/12/02 11:54:54;;;;;;;55.47;31.83;;;3.60;1.00;;;;;;5030858;28;20664;-63
2022/12/02 11:57:28;;;;;;;49.73;28.50;;;3.60;1.00;;;;;;5029736;28;20202;-60
2022/12/02 11:59:56;;;;;;;49.47;27.33;;;3.60;1.00;;;;;;5031877;28;20417;-60
2022/12/02 12:02:24;;;;;;;53.27;29.90;;;3.50;1.00;;;;;;5029830;28;20279;-60
2022/12/02 12:05:04;;;;;;;51.80;29.20;;;3.50;1.00;;;;;;5030569;28;20777;-61
2022/12/02 12:07:41;;;;;;;48.30;26.40;;;3.50;1.00;;;;;;5031493;28;20301;-60
2022/12/02 12:10:32;;;;;;;41.77;24.63;;;3.40;1.00;;;;;;5030621;28;20216;-63
2022/12/02 12:13:15;;;;;;;42.53;25.57;;;3.40;1.00;;;;;;5031674;28;20187;-62
2022/12/02 12:15:58;;;;;;;50.93;28.23;;;3.40;1.00;;;;;;5030292;28;20584;-62
2022/12/02 12:18:44;;;;;;;46.40;27.30;;;3.50;1.00;;;;;;5032376;28;20217;-62
2022/12/02 12:21:32;;;;;;;43.70;26.23;;;3.40;1.00;;;;;;5017221;28;20199;-62
2022/12/02 12:24:17;;;;;;;44.03;25.03;;;3.40;1.00;;;;;;5032491;28;20234;-62
2022/12/02 12:26:56;;;;;;;38.53;24.03;;;3.40;1.00;;;;;;5016358;28;20540;-62
2022/12/02 12:29:36;;;;;;;40.67;23.87;;;3.40;1.00;;;;;;5032631;28;20559;-62
2022/12/02 12:32:04;;;;;;;44.53;25.77;;;3.40;1.00;;;;;;5034400;28;20188;-62
2022/12/02 12:34:32;;;;;;;43.03;25.53;;;3.40;1.00;;;;;;5031139;28;20409;-62
2022/12/02 12:36:59;;;;;;;42.87;26.10;;;3.40;1.00;;;;;;5032491;28;20326;-62
2022/12/02 12:39:26;;;;;;;49.97;27.87;;;3.60;1.00;;;;;;5049191;28;20261;-63
2022/12/02 12:41:53;;;;;;;44.83;25.50;;;3.50;1.00;;;;;;5034759;28;20274;-65
2022/12/02 12:44:29;;;;;;;46.80;26.57;;;3.40;1.00;;;;;;5032967;28;20215;-60
2022/12/02 12:47:03;;;;;;;44.97;26.03;;;3.40;1.00;;;;;;5034266;28;20188;-60
2022/12/02 12:49:32;;;;;;;45.17;26.83;;;3.50;1.00;;;;;;5017868;28;20199;-61
2022/12/02 12:51:59;;;;;;;53.43;29.67;;;3.40;1.00;;;;;;5032605;28;20208;-62
2022/12/02 12:54:26;;;;;;;52.17;28.97;;;3.50;1.00;;;;;;5017467;28;20290;-60
2022/12/02 12:56:53;;;;;;;48.03;27.80;;;3.60;1.00;;;;;;5032407;28;20224;-67
2022/12/02 12:59:20;;;;;;;38.73;24.70;;;3.60;1.00;;;;;;5030640;28;20293;-61
2022/12/02 13:01:47;;;;;;;43.67;25.50;;;3.50;1.00;;;;;;5023264;28;20662;-61
2022/12/02 13:04:15;;;;;;;45.07;26.53;;;3.40;1.00;;;;;;5027529;28;20246;-61
2022/12/02 13:06:42;;;;;;;42.57;25.63;;;3.40;1.00;;;;;;5031938;28;20202;-61
2022/12/02 13:09:10;;;;;;;40.50;24.20;;;3.40;1.00;;;;;;5025031;28;20215;-62